Time;durP1;ratioP1;P1;durP2;ratioP2;P2;SDS_P1;SDS_P2;PMS_P1;PMS_P2;Temp;Humidity;BMP_temperature;BMP_pressure;BME280_temperature;BME280_humidity;BME280_pressure;Samples;Min_cycle;Max_cycle;Signal;HPM_P1;HPM_P2
2022/03/31 00:00:41;;;;;;;6.37;3.10;;;;;;;;;;5072364;28;20437;-58
2022/03/31 00:03:08;;;;;;;17.37;14.13;;;;;;;;;;5072255;28;20438;-58
2022/03/31 00:05:34;;;;;;;7.97;6.63;;;;;;;;;;5072335;28;20473;-60
2022/03/31 00:08:01;;;;;;;4.37;3.10;;;;;;;;;;5072518;28;20437;-59
2022/03/31 00:10:30;;;;;;;5.13;3.23;;;;;;;;;;5072343;28;20507;-58
2022/03/31 00:12:57;;;;;;;3.77;2.50;;;;;;;;;;5072188;28;20471;-59
2022/03/31 00:15:24;;;;;;;3.90;2.87;;;;;;;;;;5072095;28;20481;-59
2022/03/31 00:17:50;;;;;;;5.77;3.00;;;;;;;;;;5072254;28;20801;-58
2022/03/31 00:20:16;;;;;;;4.30;2.97;;;;;;;;;;5072255;28;20438;-58
2022/03/31 00:22:42;;;;;;;6.07;2.73;;;;;;;;;;5072369;28;20469;-57
2022/03/31 00:25:10;;;;;;;5.03;3.10;;;;;;;;;;5072067;28;20480;-57
2022/03/31 00:27:38;;;;;;;3.73;2.63;;;;;;;;;;5071781;28;20480;-58
2022/03/31 00:30:05;;;;;;;3.63;2.83;;;;;;;;;;5071878;28;20457;-59
2022/03/31 00:32:31;;;;;;;9.57;2.90;;;;;;;;;;5071903;28;20476;-58
2022/03/31 00:34:57;;;;;;;6.03;2.83;;;;;;;;;;5072134;28;20944;-59
2022/03/31 00:37:23;;;;;;;4.63;2.67;;;;;;;;;;5072122;28;20433;-58
2022/03/31 00:39:49;;;;;;;4.73;2.80;;;;;;;;;;5072105;28;20200;-59
2022/03/31 00:42:16;;;;;;;4.67;3.27;;;;;;;;;;5072082;28;20457;-59
2022/03/31 00:44:43;;;;;;;4.57;2.87;;;;;;;;;;5072104;28;20776;-60
2022/03/31 00:47:09;;;;;;;6.87;3.07;;;;;;;;;;5071912;28;20430;-59
2022/03/31 00:49:35;;;;;;;4.43;2.83;;;;;;;;;;5072014;28;20520;-60
2022/03/31 00:52:01;;;;;;;6.03;2.93;;;;;;;;;;5075074;28;20561;-59
2022/03/31 00:54:28;;;;;;;6.63;3.03;;;;;;;;;;5075860;28;20963;-60
2022/03/31 00:56:55;;;;;;;4.70;2.70;;;;;;;;;;5075734;28;20928;-59
2022/03/31 00:59:21;;;;;;;7.03;2.80;;;;;;;;;;5075550;28;20521;-58
2022/03/31 01:01:49;;;;;;;17.73;13.87;;;;;;;;;;5075145;28;20871;-58
2022/03/31 01:04:15;;;;;;;12.27;8.03;;;;;;;;;;5075671;28;20211;-58
2022/03/31 01:06:43;;;;;;;4.73;3.00;;;;;;;;;;5075679;28;21007;-59
2022/03/31 01:09:10;;;;;;;7.27;3.40;;;;;;;;;;5075666;28;20448;-59
2022/03/31 01:11:36;;;;;;;5.13;3.07;;;;;;;;;;5075276;28;20474;-59
2022/03/31 01:14:02;;;;;;;6.83;3.37;;;;;;;;;;5075356;28;20507;-59
2022/03/31 01:16:30;;;;;;;3.67;3.07;;;;;;;;;;5075406;28;20204;-59
2022/03/31 01:18:58;;;;;;;4.67;3.47;;;;;;;;;;5075438;28;20422;-59
2022/03/31 01:21:24;;;;;;;5.60;3.13;;;;;;;;;;5075438;28;20525;-58
2022/03/31 01:23:54;;;;;;;3.60;3.00;;;;;;;;;;5075194;28;20532;-58
2022/03/31 01:26:20;;;;;;;5.53;2.80;;;;;;;;;;5074998;28;20235;-57
2022/03/31 01:28:51;;;;;;;5.17;2.97;;;;;;;;;;5075151;28;20927;-57
2022/03/31 01:31:17;;;;;;;4.77;3.00;;;;;;;;;;5075019;28;20477;-59
2022/03/31 01:33:43;;;;;;;4.30;3.10;;;;;;;;;;5074995;28;20913;-58
2022/03/31 01:36:09;;;;;;;7.03;3.20;;;;;;;;;;5074951;28;20939;-58
2022/03/31 01:38:35;;;;;;;5.80;3.30;;;;;;;;;;5075187;28;20437;-58
2022/03/31 01:41:05;;;;;;;5.17;3.40;;;;;;;;;;5075141;28;20486;-58
2022/03/31 01:43:31;;;;;;;4.77;3.17;;;;;;;;;;5074828;28;20203;-57
2022/03/31 01:45:57;;;;;;;4.90;3.40;;;;;;;;;;5074976;28;20442;-59
2022/03/31 01:48:23;;;;;;;4.10;3.10;;;;;;;;;;5074763;28;20430;-59
2022/03/31 01:50:50;;;;;;;5.90;3.40;;;;;;;;;;5074816;28;20984;-59
2022/03/31 01:53:18;;;;;;;5.50;3.20;;;;;;;;;;5074874;28;20195;-59
2022/03/31 01:55:44;;;;;;;5.73;3.50;;;;;;;;;;5074854;28;20426;-59
2022/03/31 01:58:12;;;;;;;5.03;3.23;;;;;;;;;;5074627;28;20422;-59
2022/03/31 02:00:38;;;;;;;6.27;3.37;;;;;;;;;;5074591;28;20434;-58
2022/03/31 02:03:04;;;;;;;6.93;3.90;;;;;;;;;;5074081;28;20464;-59
2022/03/31 02:05:30;;;;;;;4.20;3.33;;;;;;;;;;5074628;28;20522;-58
2022/03/31 02:07:56;;;;;;;5.93;3.23;;;;;;;;;;5074676;28;20887;-59
2022/03/31 02:10:25;;;;;;;6.83;3.07;;;;;;;;;;5074298;28;20200;-59
2022/03/31 02:12:51;;;;;;;4.50;3.23;;;;;;;;;;5074301;28;20426;-59
2022/03/31 02:15:22;;;;;;;5.50;3.23;;;;;;;;;;5074324;28;20450;-59
2022/03/31 02:17:48;;;;;;;5.63;2.87;;;;;;;;;;5074501;28;20434;-59
2022/03/31 02:20:14;;;;;;;6.50;3.30;;;;;;;;;;5074213;28;20840;-58
2022/03/31 02:22:40;;;;;;;4.97;3.10;;;;;;;;;;5074138;28;20499;-58
2022/03/31 02:25:08;;;;;;;5.33;3.50;;;;;;;;;;5074220;28;20466;-58
2022/03/31 02:27:34;;;;;;;3.73;3.17;;;;;;;;;;5073926;28;20243;-58
2022/03/31 02:30:00;;;;;;;4.03;3.43;;;;;;;;;;5074407;28;20835;-59
2022/03/31 02:32:28;;;;;;;5.07;3.53;;;;;;;;;;5073914;28;20564;-59
2022/03/31 02:34:54;;;;;;;6.47;3.67;;;;;;;;;;5074069;28;20928;-58
2022/03/31 02:37:20;;;;;;;8.77;4.27;;;;;;;;;;5073972;28;20488;-57
2022/03/31 02:39:46;;;;;;;6.30;3.40;;;;;;;;;;5073905;28;20442;-56
2022/03/31 02:42:12;;;;;;;5.53;3.70;;;;;;;;;;5073880;28;20234;-57
2022/03/31 02:44:38;;;;;;;5.63;3.60;;;;;;;;;;5073601;28;20206;-57
2022/03/31 02:47:04;;;;;;;5.27;3.17;;;;;;;;;;5073678;28;20441;-56
2022/03/31 02:49:32;;;;;;;4.63;3.40;;;;;;;;;;5073771;28;20499;-56
2022/03/31 02:51:58;;;;;;;5.70;3.70;;;;;;;;;;5073336;28;20843;-56
2022/03/31 02:57:09;;;;;;;7.53;3.80;;;;;;;;;;5073526;28;20789;-57
2022/03/31 02:59:35;;;;;;;5.80;3.60;;;;;;;;;;5073324;28;20446;-57
2022/03/31 03:02:01;;;;;;;6.90;3.43;;;;;;;;;;5073385;28;20192;-57
2022/03/31 03:04:27;;;;;;;4.13;3.40;;;;;;;;;;5073225;28;20594;-56
2022/03/31 03:06:54;;;;;;;5.17;3.50;;;;;;;;;;5073255;28;20714;-56
2022/03/31 03:09:20;;;;;;;5.10;3.50;;;;;;;;;;5073136;28;20453;-56
2022/03/31 03:11:46;;;;;;;6.27;4.00;;;;;;;;;;5073010;28;20841;-56
2022/03/31 03:14:13;;;;;;;6.00;4.07;;;;;;;;;;5072242;28;20203;-57
2022/03/31 03:16:40;;;;;;;6.97;3.60;;;;;;;;;;5073133;28;20624;-57
2022/03/31 03:19:06;;;;;;;7.33;4.33;;;;;;;;;;5073024;28;20445;-57
2022/03/31 03:21:31;;;;;;;4.90;4.23;;;;;;;;;;5073041;28;20442;-58
2022/03/31 03:23:59;;;;;;;6.63;4.03;;;;;;;;;;5073211;28;20251;-58
2022/03/31 03:26:25;;;;;;;5.97;3.90;;;;;;;;;;5072694;28;20289;-58
2022/03/31 03:28:51;;;;;;;5.60;3.70;;;;;;;;;;5072861;28;20850;-57
2022/03/31 03:31:17;;;;;;;7.03;3.87;;;;;;;;;;5072796;28;20227;-57
2022/03/31 03:33:43;;;;;;;6.40;3.97;;;;;;;;;;5072923;28;20206;-58
2022/03/31 03:36:11;;;;;;;5.40;4.03;;;;;;;;;;5072805;28;20446;-59
2022/03/31 03:38:38;;;;;;;7.23;3.77;;;;;;;;;;5072665;28;20220;-59
2022/03/31 03:41:05;;;;;;;5.63;4.30;;;;;;;;;;5072744;28;20429;-57
2022/03/31 03:43:31;;;;;;;5.17;3.90;;;;;;;;;;5072590;28;20441;-59
2022/03/31 03:45:57;;;;;;;7.53;3.80;;;;;;;;;;5072837;28;20441;-57
2022/03/31 03:48:23;;;;;;;7.17;4.33;;;;;;;;;;5072631;28;20680;-58
2022/03/31 03:50:49;;;;;;;5.77;3.90;;;;;;;;;;5072553;28;20477;-57
2022/03/31 03:53:15;;;;;;;5.83;3.63;;;;;;;;;;5072584;28;20891;-58
2022/03/31 03:55:41;;;;;;;8.57;4.30;;;;;;;;;;5072554;28;20939;-58
2022/03/31 03:58:08;;;;;;;4.93;3.57;;;;;;;;;;5072609;28;20434;-58
2022/03/31 04:00:35;;;;;;;5.30;3.63;;;;;;;;;;5072482;28;20223;-57
2022/03/31 04:03:01;;;;;;;5.10;3.80;;;;;;;;;;5072499;28;20440;-57
2022/03/31 04:05:27;;;;;;;7.03;3.60;;;;;;;;;;5072270;28;20513;-57
2022/03/31 04:07:53;;;;;;;4.83;3.77;;;;;;;;;;5072489;28;20253;-57
2022/03/31 04:10:19;;;;;;;6.07;3.87;;;;;;;;;;5072386;28;20426;-57
2022/03/31 04:12:45;;;;;;;5.00;3.90;;;;;;;;;;5072268;28;20497;-57
2022/03/31 04:15:15;;;;;;;5.03;3.70;;;;;;;;;;5072157;28;20210;-57
2022/03/31 04:17:44;;;;;;;7.30;3.77;;;;;;;;;;5072278;28;20448;-57
2022/03/31 04:20:11;;;;;;;4.67;4.10;;;;;;;;;;5072366;28;20849;-57
2022/03/31 04:22:37;;;;;;;6.53;4.13;;;;;;;;;;5072096;28;20429;-57
2022/03/31 04:25:04;;;;;;;6.37;4.53;;;;;;;;;;5071797;28;21031;-57
2022/03/31 04:27:30;;;;;;;6.30;4.47;;;;;;;;;;5072078;28;20512;-58
2022/03/31 04:29:56;;;;;;;5.17;3.80;;;;;;;;;;5072058;28;20481;-58
2022/03/31 04:32:24;;;;;;;4.97;4.20;;;;;;;;;;5072022;28;20246;-58
2022/03/31 04:34:50;;;;;;;7.23;4.10;;;;;;;;;;5072084;28;20437;-58
2022/03/31 04:37:16;;;;;;;6.13;4.53;;;;;;;;;;5072103;28;20437;-58
2022/03/31 04:39:42;;;;;;;5.10;4.10;;;;;;;;;;5072118;28;20429;-58
2022/03/31 04:42:09;;;;;;;6.80;3.93;;;;;;;;;;5071942;28;20928;-59
2022/03/31 04:44:37;;;;;;;5.63;4.70;;;;;;;;;;5071917;28;20978;-58
2022/03/31 04:47:04;;;;;;;6.90;4.37;;;;;;;;;;5071974;28;20805;-58
2022/03/31 04:49:31;;;;;;;6.10;4.87;;;;;;;;;;5071721;28;20440;-58
2022/03/31 04:51:57;;;;;;;5.47;4.63;;;;;;;;;;5071999;28;20465;-58
2022/03/31 04:54:23;;;;;;;6.43;4.77;;;;;;;;;;5071986;28;20455;-58
2022/03/31 04:56:49;;;;;;;7.53;5.00;;;;;;;;;;5071839;28;20195;-58
2022/03/31 04:59:15;;;;;;;7.63;4.87;;;;;;;;;;5071980;28;20290;-58
2022/03/31 05:01:41;;;;;;;6.40;5.00;;;;;;;;;;5071164;28;20200;-58
2022/03/31 05:04:09;;;;;;;7.80;4.77;;;;;;;;;;5071674;28;20257;-58
2022/03/31 05:06:36;;;;;;;7.83;4.87;;;;;;;;;;5071707;28;20488;-58
2022/03/31 05:09:02;;;;;;;6.27;5.10;;;;;;;;;;5071578;28;20453;-58
2022/03/31 05:11:28;;;;;;;5.10;4.60;;;;;;;;;;5071297;28;20489;-58
2022/03/31 05:13:54;;;;;;;8.73;5.30;;;;;;;;;;5071531;28;20428;-58
2022/03/31 05:16:20;;;;;;;8.10;4.70;;;;;;;;;;5071431;28;20719;-59
2022/03/31 05:18:47;;;;;;;7.70;4.83;;;;;;;;;;5071358;28;20195;-58
2022/03/31 05:21:13;;;;;;;9.10;5.17;;;;;;;;;;5071441;28;20445;-57
2022/03/31 05:23:41;;;;;;;6.77;4.57;;;;;;;;;;5071491;28;20450;-58
2022/03/31 05:26:07;;;;;;;8.97;4.97;;;;;;;;;;5071208;28;20246;-58
2022/03/31 05:28:33;;;;;;;5.50;4.83;;;;;;;;;;5071286;28;20433;-58
2022/03/31 05:30:59;;;;;;;7.23;5.20;;;;;;;;;;5071434;28;20546;-58
2022/03/31 05:33:25;;;;;;;5.63;4.10;;;;;;;;;;5071231;28;20203;-57
2022/03/31 05:35:51;;;;;;;6.33;5.03;;;;;;;;;;5071022;28;20442;-57
2022/03/31 05:38:17;;;;;;;7.43;4.37;;;;;;;;;;5074272;28;20442;-61
2022/03/31 05:40:45;;;;;;;5.87;4.87;;;;;;;;;;5075082;28;20188;-58
2022/03/31 05:43:11;;;;;;;6.80;4.60;;;;;;;;;;5074576;28;20225;-58
2022/03/31 05:45:37;;;;;;;7.87;5.30;;;;;;;;;;5074496;28;20441;-58
2022/03/31 05:48:03;;;;;;;7.83;5.23;;;;;;;;;;5074862;28;20429;-59
2022/03/31 05:50:29;;;;;;;10.43;5.40;;;;;;;;;;5074626;28;21021;-53
2022/03/31 05:52:55;;;;;;;8.13;5.30;;;;;;;;;;5074667;28;20499;-56
2022/03/31 05:55:21;;;;;;;12.17;9.13;;;;;;;;;;5074591;28;20433;-56
2022/03/31 05:57:49;;;;;;;6.60;5.40;;;;;;;;;;5074733;28;20202;-54
2022/03/31 06:00:16;;;;;;;9.77;5.33;;;;;;;;;;5074808;28;20449;-55
2022/03/31 06:02:42;;;;;;;7.97;5.47;;;;;;;;;;5074610;28;20437;-55
2022/03/31 06:05:10;;;;;;;10.17;5.57;;;;;;;;;;5074424;28;20993;-55
2022/03/31 06:07:37;;;;;;;9.53;6.20;;;;;;;;;;5074166;28;20525;-55
2022/03/31 06:10:03;;;;;;;6.57;5.90;;;;;;;;;;5073884;28;20449;-55
2022/03/31 06:12:29;;;;;;;12.67;6.97;;;;;;;;;;5074190;28;20496;-55
2022/03/31 06:14:56;;;;;;;9.67;6.47;;;;;;;;;;5074214;28;20430;-55
2022/03/31 06:17:23;;;;;;;8.80;7.13;;;;;;;;;;5073979;28;20793;-56
2022/03/31 06:19:49;;;;;;;9.47;7.37;;;;;;;;;;5074257;28;20432;-56
2022/03/31 06:22:15;;;;;;;8.83;6.93;;;;;;;;;;5073970;28;20434;-55
2022/03/31 06:24:41;;;;;;;9.90;7.63;;;;;;;;;;5074226;28;20223;-55
2022/03/31 06:27:08;;;;;;;10.30;7.77;;;;;;;;;;5073945;28;20527;-55
2022/03/31 06:29:35;;;;;;;10.73;7.80;;;;;;;;;;5073835;28;20615;-55
2022/03/31 06:32:02;;;;;;;10.47;8.37;;;;;;;;;;5073764;28;20481;-55
2022/03/31 06:34:28;;;;;;;11.57;8.80;;;;;;;;;;5072522;28;20460;-55
2022/03/31 06:36:55;;;;;;;12.73;8.50;;;;;;;;;;5070809;28;20434;-55
2022/03/31 06:39:21;;;;;;;9.97;8.97;;;;;;;;;;5072489;28;20525;-55
2022/03/31 06:41:47;;;;;;;10.30;8.67;;;;;;;;;;5073144;28;20789;-55
2022/03/31 06:44:15;;;;;;;10.17;8.67;;;;;;;;;;5073572;28;20430;-55
2022/03/31 06:46:42;;;;;;;14.67;10.07;;;;;;;;;;5072946;28;20204;-55
2022/03/31 06:49:09;;;;;;;12.53;9.50;;;;;;;;;;5073026;28;20465;-55
2022/03/31 06:51:35;;;;;;;12.30;10.00;;;;;;;;;;5072949;28;20477;-55
2022/03/31 06:54:02;;;;;;;15.80;11.73;;;;;;;;;;5073207;28;20442;-55
2022/03/31 06:56:29;;;;;;;14.47;10.97;;;;;;;;;;5072909;28;20434;-55
2022/03/31 06:58:55;;;;;;;14.50;10.60;;;;;;;;;;5073045;28;20783;-55
2022/03/31 07:01:21;;;;;;;14.37;11.63;;;;;;;;;;5072754;28;20475;-55
2022/03/31 07:03:47;;;;;;;16.17;12.07;;;;;;;;;;5072732;28;20476;-55
2022/03/31 07:06:15;;;;;;;18.40;12.83;;;;;;;;;;5073312;28;20450;-55
2022/03/31 07:08:41;;;;;;;18.20;13.83;;;;;;;;;;5073101;28;20200;-55
2022/03/31 07:11:07;;;;;;;16.70;12.60;;;;;;;;;;5073030;28;20473;-53
2022/03/31 07:13:33;;;;;;;14.87;12.13;;;;;;;;;;5072739;28;20804;-54
2022/03/31 07:15:59;;;;;;;17.93;12.90;;;;;;;;;;5073130;28;20517;-55
2022/03/31 07:18:26;;;;;;;16.87;13.73;;;;;;;;;;5072697;28;20442;-55
2022/03/31 07:20:52;;;;;;;16.87;13.57;;;;;;;;;;5073001;28;20430;-55
2022/03/31 07:23:20;;;;;;;17.87;13.57;;;;;;;;;;5072852;28;20947;-55
2022/03/31 07:25:47;;;;;;;17.87;13.73;;;;;;;;;;5072579;28;20437;-55
2022/03/31 07:28:14;;;;;;;19.53;13.33;;;;;;;;;;5072738;28;20457;-54
2022/03/31 07:30:40;;;;;;;18.10;14.17;;;;;;;;;;5072524;28;20442;-54
2022/03/31 07:33:06;;;;;;;18.37;14.63;;;;;;;;;;5072622;28;20454;-54
2022/03/31 07:35:33;;;;;;;18.50;15.10;;;;;;;;;;5072507;28;20233;-54
2022/03/31 07:37:59;;;;;;;16.43;13.80;;;;;;;;;;5072782;28;20203;-54
2022/03/31 07:40:27;;;;;;;16.73;14.47;;;;;;;;;;5072406;28;20437;-54
2022/03/31 07:42:54;;;;;;;19.23;15.20;;;;;;;;;;5072487;28;20422;-55
2022/03/31 07:45:20;;;;;;;18.83;15.73;;;;;;;;;;5072508;28;20533;-55
2022/03/31 07:47:46;;;;;;;16.80;13.97;;;;;;;;;;5072251;28;20806;-55
2022/03/31 07:50:13;;;;;;;16.40;13.23;;;;;;;;;;5072400;28;20997;-54
2022/03/31 07:52:40;;;;;;;14.77;11.30;;;;;;;;;;5072140;28;20592;-54
2022/03/31 07:55:07;;;;;;;15.93;11.90;;;;;;;;;;5072097;28;20462;-55
2022/03/31 07:57:34;;;;;;;17.77;12.73;;;;;;;;;;5071680;28;20442;-56
2022/03/31 08:00:00;;;;;;;15.03;12.47;;;;;;;;;;5071774;28;20805;-55
2022/03/31 08:02:26;;;;;;;16.93;13.57;;;;;;;;;;5071751;28;20434;-57
2022/03/31 08:04:53;;;;;;;18.33;13.83;;;;;;;;;;5072225;28;20433;-57
2022/03/31 08:07:19;;;;;;;17.33;13.37;;;;;;;;;;5071951;28;20195;-57
2022/03/31 08:09:45;;;;;;;18.47;13.37;;;;;;;;;;5071934;28;20476;-56
2022/03/31 08:12:11;;;;;;;13.97;12.00;;;;;;;;;;5071691;28;20318;-55
2022/03/31 08:14:38;;;;;;;15.13;11.93;;;;;;;;;;5071600;28;20948;-56
2022/03/31 08:17:05;;;;;;;16.60;12.20;;;;;;;;;;5071939;28;20442;-56
2022/03/31 08:19:32;;;;;;;14.13;10.87;;;;;;;;;;5071854;28;20461;-57
2022/03/31 08:22:01;;;;;;;10.67;9.57;;;;;;;;;;5071965;28;20967;-56
2022/03/31 08:24:27;;;;;;;10.80;9.27;;;;;;;;;;5071258;28;20454;-56
2022/03/31 08:26:53;;;;;;;13.90;8.53;;;;;;;;;;5071320;28;20466;-57
2022/03/31 08:29:19;;;;;;;10.00;7.97;;;;;;;;;;5071619;28;20453;-57
2022/03/31 08:31:46;;;;;;;10.27;7.90;;;;;;;;;;5071460;28;20259;-57
2022/03/31 08:34:13;;;;;;;9.63;7.03;;;;;;;;;;5071503;28;20200;-54
2022/03/31 08:36:38;;;;;;;10.20;6.53;;;;;;;;;;5071379;28;20489;-53
2022/03/31 08:39:05;;;;;;;8.73;6.00;;;;;;;;;;5071363;28;20472;-59
2022/03/31 08:41:32;;;;;;;10.53;6.47;;;;;;;;;;5071305;28;20540;-55
2022/03/31 08:43:58;;;;;;;6.73;5.90;;;;;;;;;;5071802;28;20441;-54
2022/03/31 08:46:27;;;;;;;9.13;7.07;;;;;;;;;;5071209;28;20442;-57
2022/03/31 08:48:56;;;;;;;9.17;6.43;;;;;;;;;;5071713;28;20438;-56
2022/03/31 08:51:22;;;;;;;10.93;6.17;;;;;;;;;;5071339;28;20531;-58
2022/03/31 08:53:48;;;;;;;11.80;6.90;;;;;;;;;;5071411;28;20532;-58
2022/03/31 08:56:15;;;;;;;10.80;7.63;;;;;;;;;;5071409;28;20446;-57
2022/03/31 08:58:42;;;;;;;10.77;6.80;;;;;;;;;;5071221;28;20460;-57
2022/03/31 09:01:08;;;;;;;9.73;7.00;;;;;;;;;;5071635;28;20528;-59
2022/03/31 09:03:35;;;;;;;8.90;6.43;;;;;;;;;;5061573;28;20521;-58
2022/03/31 09:06:03;;;;;;;10.90;7.47;;;;;;;;;;5071367;28;20666;-57
2022/03/31 09:08:30;;;;;;;10.23;6.90;;;;;;;;;;5071180;28;20445;-58
2022/03/31 09:11:00;;;;;;;13.63;6.77;;;;;;;;;;5070752;28;20940;-58
2022/03/31 09:13:30;;;;;;;7.77;6.50;;;;;;;;;;5074314;28;20436;-57
2022/03/31 09:15:57;;;;;;;9.73;7.30;;;;;;;;;;5072991;28;20441;-55
2022/03/31 09:18:23;;;;;;;8.10;6.63;;;;;;;;;;5074911;28;20486;-56
2022/03/31 09:20:50;;;;;;;10.70;8.20;;;;;;;;;;5074948;28;20441;-58
2022/03/31 09:23:18;;;;;;;11.97;7.17;;;;;;;;;;5074870;28;20445;-55
2022/03/31 09:25:44;;;;;;;9.37;6.80;;;;;;;;;;5074498;28;20452;-57
2022/03/31 09:28:18;;;;;;;8.93;6.27;;;;;;;;;;5074381;28;20433;-56
2022/03/31 09:30:48;;;;;;;8.80;6.77;;;;;;;;;;5074903;28;20274;-56
2022/03/31 09:33:31;;;;;;;10.03;7.50;;;;;;;;;;5074697;28;20445;-57
2022/03/31 09:36:01;;;;;;;9.50;7.70;;;;;;;;;;5074819;28;20441;-58
2022/03/31 09:38:29;;;;;;;9.03;7.63;;;;;;;;;;5074534;28;20564;-56
2022/03/31 09:40:55;;;;;;;9.73;8.17;;;;;;;;;;5074690;28;20619;-55
2022/03/31 09:43:21;;;;;;;7.90;6.90;;;;;;;;;;5074392;28;20513;-55
2022/03/31 09:45:48;;;;;;;13.73;7.43;;;;;;;;;;5073973;28;20290;-56
2022/03/31 09:48:18;;;;;;;8.80;7.53;;;;;;;;;;5074679;28;20210;-56
2022/03/31 09:50:44;;;;;;;12.17;6.70;;;;;;;;;;5074632;28;20206;-56
2022/03/31 09:53:11;;;;;;;8.60;7.17;;;;;;;;;;5074441;28;20740;-55
2022/03/31 09:55:39;;;;;;;11.27;8.23;;;;;;;;;;5074164;28;20442;-55
2022/03/31 09:58:08;;;;;;;9.53;7.17;;;;;;;;;;5074301;28;20203;-56
2022/03/31 10:00:34;;;;;;;12.33;8.50;;;;;;;;;;5074361;28;20219;-57
2022/03/31 10:03:01;;;;;;;10.33;7.53;;;;;;;;;;5074616;28;20662;-56
2022/03/31 10:05:27;;;;;;;9.57;7.90;;;;;;;;;;5074318;28;20195;-56
2022/03/31 10:07:54;;;;;;;12.23;7.93;;;;;;;;;;5072375;28;20199;-56
2022/03/31 10:10:20;;;;;;;10.90;8.37;;;;;;;;;;5072511;28;20563;-57
2022/03/31 10:12:54;;;;;;;8.37;7.47;;;;;;;;;;5073699;28;20699;-56
2022/03/31 10:15:23;;;;;;;8.30;7.20;;;;;;;;;;5073421;28;20223;-56
2022/03/31 10:17:51;;;;;;;8.93;7.60;;;;;;;;;;5073415;28;20544;-56
2022/03/31 10:20:17;;;;;;;14.80;8.20;;;;;;;;;;5073505;28;20761;-56
2022/03/31 10:25:40;;;;;;;11.20;8.10;;;;;;;;;;5073296;28;20195;-57
2022/03/31 10:28:11;;;;;;;8.87;6.80;;;;;;;;;;5073459;28;20243;-57
2022/03/31 10:30:38;;;;;;;7.97;7.17;;;;;;;;;;5073475;28;20283;-56
2022/03/31 10:33:06;;;;;;;8.63;7.07;;;;;;;;;;5073314;28;20677;-57
2022/03/31 10:35:33;;;;;;;11.77;7.87;;;;;;;;;;5073432;28;20621;-56
2022/03/31 10:38:10;;;;;;;9.57;7.37;;;;;;;;;;5073596;28;20278;-57
2022/03/31 10:40:42;;;;;;;8.30;6.67;;;;;;;;;;5073216;28;20252;-56
2022/03/31 10:43:18;;;;;;;11.90;7.40;;;;;;;;;;5073057;28;20265;-57
2022/03/31 10:45:45;;;;;;;10.23;7.17;;;;;;;;;;5072967;28;20187;-57
2022/03/31 10:48:15;;;;;;;13.43;6.90;;;;;;;;;;5073198;28;20537;-57
2022/03/31 10:50:41;;;;;;;7.27;5.87;;;;;;;;;;5073051;28;20251;-61
2022/03/31 10:53:07;;;;;;;7.33;6.00;;;;;;;;;;5072779;28;20219;-56
2022/03/31 10:55:34;;;;;;;9.53;5.87;;;;;;;;;;5073125;28;20650;-55
2022/03/31 10:58:00;;;;;;;14.00;11.37;;;;;;;;;;5073200;28;20670;-56
2022/03/31 11:00:26;;;;;;;7.33;5.97;;;;;;;;;;5073211;28;20209;-56
2022/03/31 11:02:55;;;;;;;8.87;7.77;;;;;;;;;;5072946;28;20192;-55
2022/03/31 11:05:22;;;;;;;13.17;10.23;;;;;;;;;;5072921;28;20245;-55
2022/03/31 11:07:48;;;;;;;6.53;5.47;;;;;;;;;;5072894;28;20196;-57
2022/03/31 11:10:17;;;;;;;6.50;5.57;;;;;;;;;;5072851;28;20196;-57
2022/03/31 11:12:43;;;;;;;6.07;5.03;;;;;;;;;;5072881;28;20269;-56
2022/03/31 11:15:10;;;;;;;7.67;5.27;;;;;;;;;;5072935;28;20199;-56
2022/03/31 11:17:37;;;;;;;11.77;5.47;;;;;;;;;;5072708;28;20239;-56
2022/03/31 11:20:13;;;;;;;10.83;9.83;;;;;;;;;;5072650;28;20282;-56
2022/03/31 11:22:46;;;;;;;8.80;7.90;;;;;;;;;;5072608;28;20211;-55
2022/03/31 11:25:13;;;;;;;7.10;4.87;;;;;;;;;;5072650;28;20226;-57
2022/03/31 11:27:40;;;;;;;6.07;4.60;;;;;;;;;;5072533;28;20246;-56
2022/03/31 11:30:07;;;;;;;5.97;4.37;;;;;;;;;;5072765;28;20257;-55
2022/03/31 11:32:34;;;;;;;5.00;4.43;;;;;;;;;;5072520;28;20272;-56
2022/03/31 11:35:00;;;;;;;6.30;4.07;;;;;;;;;;5070541;28;20195;-56
2022/03/31 11:37:27;;;;;;;8.27;3.73;;;;;;;;;;5072541;28;20219;-55
2022/03/31 11:39:53;;;;;;;4.53;3.87;;;;;;;;;;5072514;28;20200;-56
2022/03/31 11:42:20;;;;;;;4.33;3.90;;;;;;;;;;5072552;28;20282;-56
2022/03/31 11:44:47;;;;;;;7.57;4.10;;;;;;;;;;5072300;28;20650;-56
2022/03/31 11:47:17;;;;;;;5.33;4.07;;;;;;;;;;5072638;28;20195;-55
2022/03/31 11:49:44;;;;;;;4.63;3.93;;;;;;;;;;5072382;28;20210;-55
2022/03/31 11:52:10;;;;;;;5.73;4.10;;;;;;;;;;5072244;28;20302;-54
2022/03/31 11:54:44;;;;;;;7.00;4.03;;;;;;;;;;5072084;28;20207;-55
2022/03/31 11:57:12;;;;;;;6.07;4.13;;;;;;;;;;5072215;28;20204;-55
2022/03/31 11:59:38;;;;;;;4.80;3.77;;;;;;;;;;5072008;28;20217;-55
2022/03/31 12:02:12;;;;;;;7.53;3.87;;;;;;;;;;5072063;28;20715;-56
2022/03/31 12:04:38;;;;;;;7.43;3.97;;;;;;;;;;5071866;28;20771;-56
2022/03/31 12:07:05;;;;;;;4.50;4.10;;;;;;;;;;5072294;28;20206;-56
2022/03/31 12:09:32;;;;;;;5.83;4.17;;;;;;;;;;5072119;28;20290;-56
2022/03/31 12:11:59;;;;;;;6.53;4.53;;;;;;;;;;5072200;28;20227;-56
2022/03/31 12:14:27;;;;;;;6.70;4.27;;;;;;;;;;5072124;28;20233;-56
2022/03/31 12:16:59;;;;;;;5.27;3.73;;;;;;;;;;5071986;28;20674;-56
2022/03/31 12:19:26;;;;;;;8.67;4.53;;;;;;;;;;5072121;28;20200;-57
2022/03/31 12:21:53;;;;;;;6.33;3.80;;;;;;;;;;5072119;28;20203;-56
2022/03/31 12:24:20;;;;;;;6.03;4.13;;;;;;;;;;5071856;28;20310;-58
2022/03/31 12:26:55;;;;;;;6.23;4.10;;;;;;;;;;5071231;28;20247;-55
2022/03/31 12:29:23;;;;;;;9.27;4.10;;;;;;;;;;5071812;28;20737;-55
2022/03/31 12:31:59;;;;;;;4.83;3.70;;;;;;;;;;5071549;28;20701;-57
2022/03/31 12:34:25;;;;;;;4.60;4.20;;;;;;;;;;5071805;28;20558;-56
2022/03/31 12:36:51;;;;;;;5.90;3.73;;;;;;;;;;5072010;28;20199;-56
2022/03/31 12:39:17;;;;;;;5.50;3.67;;;;;;;;;;5071561;28;20199;-56
2022/03/31 12:41:49;;;;;;;4.80;4.10;;;;;;;;;;5071640;28;20239;-57
2022/03/31 12:44:16;;;;;;;4.10;3.70;;;;;;;;;;5071704;28;20200;-56
2022/03/31 12:46:48;;;;;;;10.00;4.10;;;;;;;;;;5074334;28;20230;-56
2022/03/31 12:49:15;;;;;;;4.80;3.73;;;;;;;;;;5075991;28;20287;-55
2022/03/31 12:51:43;;;;;;;7.27;5.40;;;;;;;;;;5075627;28;20250;-56
2022/03/31 12:54:25;;;;;;;5.17;3.83;;;;;;;;;;5075393;28;20223;-55
2022/03/31 12:56:53;;;;;;;5.03;3.50;;;;;;;;;;5075614;28;20614;-56
2022/03/31 12:59:19;;;;;;;8.10;4.50;;;;;;;;;;5075365;28;20195;-56
2022/03/31 13:01:57;;;;;;;10.73;4.77;;;;;;;;;;5075726;28;20287;-57
2022/03/31 13:04:23;;;;;;;4.93;3.37;;;;;;;;;;5075199;28;20646;-56
2022/03/31 13:06:49;;;;;;;6.27;4.80;;;;;;;;;;5075610;28;20204;-58
2022/03/31 13:09:15;;;;;;;4.03;3.00;;;;;;;;;;5075590;28;20221;-56
2022/03/31 13:11:43;;;;;;;6.50;4.10;;;;;;;;;;5075273;28;20223;-57
2022/03/31 13:14:10;;;;;;;4.20;3.30;;;;;;;;;;5075445;28;20200;-57
2022/03/31 13:16:37;;;;;;;4.17;3.63;;;;;;;;;;5074924;28;20665;-57
2022/03/31 13:19:04;;;;;;;6.47;3.90;;;;;;;;;;5075358;28;20211;-57
2022/03/31 13:21:32;;;;;;;4.80;3.43;;;;;;;;;;5075253;28;20200;-58
2022/03/31 13:23:58;;;;;;;6.27;4.50;;;;;;;;;;5075037;28;20227;-55
2022/03/31 13:26:24;;;;;;;8.23;3.43;;;;;;;;;;5074896;28;20735;-56
2022/03/31 13:28:50;;;;;;;5.77;3.07;;;;;;;;;;5075098;28;20256;-57
2022/03/31 13:31:16;;;;;;;3.60;3.03;;;;;;;;;;5074670;28;20199;-56
2022/03/31 13:33:43;;;;;;;6.50;3.33;;;;;;;;;;5074744;28;20291;-56
2022/03/31 13:36:11;;;;;;;3.97;3.07;;;;;;;;;;5074823;28;20611;-56
2022/03/31 13:38:37;;;;;;;3.67;3.37;;;;;;;;;;5074803;28;20435;-57
2022/03/31 13:41:04;;;;;;;6.90;3.27;;;;;;;;;;5074613;28;20234;-57
2022/03/31 13:43:31;;;;;;;4.63;3.50;;;;;;;;;;5074329;28;20203;-56
2022/03/31 13:45:57;;;;;;;3.90;3.40;;;;;;;;;;5074696;28;20196;-57
2022/03/31 13:48:23;;;;;;;3.83;3.13;;;;;;;;;;5069010;28;20218;-56
2022/03/31 13:50:49;;;;;;;6.43;3.70;;;;;;;;;;5074434;28;20650;-55
2022/03/31 13:56:01;;;;;;;3.43;3.03;;;;;;;;;;5074628;28;20203;-55
2022/03/31 14:01:12;;;;;;;5.07;4.57;;;;;;;;;;5074387;28;20198;-56
2022/03/31 14:03:38;;;;;;;4.27;2.90;;;;;;;;;;5074309;28;20192;-59
2022/03/31 14:06:05;;;;;;;5.23;3.33;;;;;;;;;;5074538;28;20196;-57
2022/03/31 14:08:34;;;;;;;4.63;3.03;;;;;;;;;;5074279;28;20650;-57
2022/03/31 14:11:00;;;;;;;4.03;2.90;;;;;;;;;;5074269;28;20203;-58
2022/03/31 14:13:26;;;;;;;4.30;3.30;;;;;;;;;;5073967;28;20938;-58
2022/03/31 14:15:55;;;;;;;4.80;3.83;;;;;;;;;;5074025;28;20203;-55
2022/03/31 14:18:21;;;;;;;4.47;2.40;;;;;;;;;;5074050;28;20212;-57
2022/03/31 14:20:47;;;;;;;6.07;4.13;;;;;;;;;;5073726;28;20215;-57
2022/03/31 14:23:13;;;;;;;3.73;2.90;;;;;;;;;;5072447;28;20204;-59
2022/03/31 14:25:40;;;;;;;4.30;2.80;;;;;;;;;;5073717;28;20277;-56
2022/03/31 14:28:06;;;;;;;2.97;2.60;;;;;;;;;;5067958;28;20235;-58
2022/03/31 14:30:34;;;;;;;3.23;2.60;;;;;;;;;;5064094;28;20198;-59
2022/03/31 14:33:00;;;;;;;5.93;3.73;;;;;;;;;;5062821;28;20251;-56
2022/03/31 14:35:26;;;;;;;4.07;3.20;;;;;;;;;;5058860;28;20632;-56
2022/03/31 14:37:52;;;;;;;5.03;2.60;;;;;;;;;;5053755;28;20894;-57
2022/03/31 14:40:19;;;;;;;4.30;3.90;;;;;;;;;;5053495;28;20196;-56
2022/03/31 14:42:46;;;;;;;4.73;2.50;;;;;;;;;;5053695;28;20211;-56
2022/03/31 14:45:13;;;;;;;3.27;2.70;;;;;;;;;;5053780;28;20243;-56
2022/03/31 14:47:39;;;;;;;5.50;4.23;;;;;;;;;;5053417;28;20573;-57